Pagrindinis puslapis
METAR-TAF:

METAR-TAF

Oro uostai :

Ronebis, Švedija

platuma: 56-16N, ilguma: 015-17E, Aukštis: 58 m

Dabartinis oras

Ataskaita buvo paskelbta 35 minutes, ne 03:20 UTC
Vėjas 1 kt iš Šiaurės Rytų
Temperatūra -11°C
Drėgmė 92%
Slėgis 999 hPa
Matomumas 10 km arba daugiau

METAR: ESDF 010320Z AUTO 05001KT 9999 NCD M11/M12 Q0999

Laikas: 04:55 (03:55 UTC)

Prognozė

Ataskaita buvo paskelbta 10 valandos ir 25 minutes, ne 17:30 UTC
Prognozė galioja nuo 30 metu 18 UTC su 30 metu 21 UTC
Vėjas 8 kt iš Šiaurės
Matomumas 10 km arba daugiau
Išsisklaidę debesys ne aukštis 4000 ft

TAF: ESDF 301730Z 3018/3021 36008KT 9999 SCT040

Orai ataskaitas ir orų prognozės (METAR, TAF).

turimą stotys yra geltonos ir raudonos taškus žemėlapyje.

Perkelti pele per norėdami pamatyti stoties vardą.

Tada spustelėkite, norėdami matyti oro stebėjimo ir prognozės.

Norėdami pakeisti žemėlapį: spustelėkite ant žalios mygtukų su juodo kryžiaus žemyn,; žalią mygtuką su brūkšneliu, jei norite nutolinti; arba žalių rodyklių gretimoms žemėlapius.


METAR-TAF: